Time;durP1;ratioP1;P1;durP2;ratioP2;P2;SDS_P1;SDS_P2;PMS_P1;PMS_P2;Temp;Humidity;BMP_temperature;BMP_pressure;BME280_temperature;BME280_humidity;BME280_pressure;Samples;Min_cycle;Max_cycle;Signal;HPM_P1;HPM_P2
2021/08/19 00:02:08;;;;;;;;;6.67;5.00;;;;;19.98;61.28;101409.91;5052373;28;45463;-71
2021/08/19 00:04:33;;;;;;;;;6.00;5.67;;;;;19.92;60.94;101408.72;5048463;28;45464;-69
2021/08/19 00:06:59;;;;;;;;;7.00;7.00;;;;;19.89;61.48;101407.22;5043098;28;45350;-70
2021/08/19 00:09:24;;;;;;;;;11.33;6.33;;;;;19.94;61.48;101410.25;5054196;28;45519;-71
2021/08/19 00:11:49;;;;;;;;;7.33;6.67;;;;;20.02;60.97;101411.25;5039701;28;47310;-70
2021/08/19 00:14:15;;;;;;;;;16.33;13.33;;;;;20.04;61.22;101411.94;5052960;28;45332;-72
2021/08/19 00:16:40;;;;;;;;;4.00;4.00;;;;;20.03;61.00;101415.59;5054008;28;45520;-70
2021/08/19 00:19:05;;;;;;;;;5.00;3.00;;;;;20.05;61.21;101410.94;5051764;28;50657;-70
2021/08/19 00:21:31;;;;;;;;;4.00;2.00;;;;;20.03;61.14;101404.94;5053223;28;45406;-69
2021/08/19 00:23:58;;;;;;;;;2.00;2.00;;;;;20.05;60.76;101403.78;5037545;28;45657;-69
2021/08/19 00:26:23;;;;;;;;;2.00;2.00;;;;;20.05;61.43;101397.63;5052611;28;45407;-69
2021/08/19 00:28:48;;;;;;;;;4.00;3.33;;;;;20.04;61.26;101399.44;5046368;28;45654;-69
2021/08/19 00:31:14;;;;;;;;;2.67;2.00;;;;;20.11;61.06;101386.31;5045364;28;45499;-70
2021/08/19 00:33:39;;;;;;;;;2.00;2.00;;;;;20.14;60.92;101395.84;5039111;28;45530;-72
2021/08/19 00:36:04;;;;;;;;;2.00;2.00;;;;;20.10;60.87;101392.66;5043366;28;45556;-70
2021/08/19 00:38:30;;;;;;;;;1.33;1.33;;;;;20.01;61.23;101388.28;5048482;28;45464;-70
2021/08/19 00:40:55;;;;;;;;;1.67;1.67;;;;;19.94;61.50;101380.91;5050688;28;46488;-69
2021/08/19 00:43:21;;;;;;;;;3.00;2.00;;;;;19.88;61.46;101380.72;5050328;28;45432;-73
2021/08/19 00:45:46;;;;;;;;;2.00;2.00;;;;;19.89;61.34;101379.72;5039955;28;45338;-70
2021/08/19 00:48:12;;;;;;;;;2.00;2.00;;;;;19.82;61.51;101387.50;5037053;28;45334;-71
2021/08/19 00:50:37;;;;;;;;;3.00;1.67;;;;;19.76;61.60;101377.47;5040669;28;46109;-69
2021/08/19 00:53:03;;;;;;;;;3.67;2.33;;;;;19.75;61.68;101381.13;5030574;28;45567;-70
2021/08/19 00:55:29;;;;;;;;;3.00;2.00;;;;;19.72;61.41;101376.09;5052424;28;45427;-70
2021/08/19 00:57:56;;;;;;;;;2.00;2.00;;;;;19.82;61.63;101387.50;5048644;28;45432;-73
2021/08/19 01:00:22;;;;;;;;;1.00;1.00;;;;;19.83;61.51;101378.50;5036879;28;47288;-71
2021/08/19 01:02:47;;;;;;;;;2.67;2.00;;;;;19.81;61.20;101377.81;5034908;28;45372;-71
2021/08/19 01:05:22;;;;;;;;;3.33;2.00;;;;;19.74;61.27;101379.44;5036955;28;45606;-71
2021/08/19 01:07:48;;;;;;;;;2.67;2.67;;;;;19.66;61.84;101376.75;5041535;28;45476;-71
2021/08/19 01:10:14;;;;;;;;;3.00;3.00;;;;;19.59;61.92;101376.50;5040714;28;46997;-71
2021/08/19 01:12:44;;;;;;;;;3.00;2.00;;;;;19.57;62.42;101379.34;5041352;28;45496;-70
2021/08/19 01:15:10;;;;;;;;;2.33;2.33;;;;;19.59;62.22;101376.50;5042680;28;45326;-71
2021/08/19 01:17:36;;;;;;;;;2.33;2.33;;;;;19.62;62.08;101370.88;5039852;28;45534;-71
2021/08/19 01:20:02;;;;;;;;;2.00;2.00;;;;;19.61;61.85;101372.69;5029917;28;47402;-70
2021/08/19 01:22:28;;;;;;;;;2.33;2.33;;;;;19.62;61.38;101377.03;5048355;28;45791;-71
2021/08/19 01:24:53;;;;;;;;;1.00;1.00;;;;;19.64;61.99;101368.88;5046385;28;45580;-71
2021/08/19 01:27:20;;;;;;;;;1.00;1.00;;;;;19.63;61.47;101373.38;5052816;28;45605;-70
2021/08/19 01:29:48;;;;;;;;;4.00;2.00;;;;;19.62;61.63;101373.53;5039108;28;46773;-70
2021/08/19 01:32:14;;;;;;;;;3.33;2.00;;;;;19.65;61.25;101367.06;5036450;28;45444;-69
2021/08/19 01:34:40;;;;;;;;;3.67;1.00;;;;;19.61;61.62;101359.38;5040906;28;45368;-69
2021/08/19 01:37:06;;;;;;;;;2.00;2.00;;;;;19.60;61.19;101367.53;5047353;28;45443;-71
2021/08/19 01:39:32;;;;;;;;;3.00;1.00;;;;;19.59;61.35;101366.69;5051187;28;45760;-70
2021/08/19 01:41:57;;;;;;;;;3.00;2.00;;;;;19.57;61.36;101363.34;5053184;28;45441;-70
2021/08/19 01:44:23;;;;;;;;;2.00;2.00;;;;;19.54;61.43;101365.50;5053848;28;45501;-71
2021/08/19 01:46:59;;;;;;;;;1.00;1.00;;;;;19.47;61.24;101359.97;5045424;28;45566;-69
2021/08/19 01:49:29;;;;;;;;;2.00;2.00;;;;;19.53;61.23;101367.31;5045138;28;47233;-70
2021/08/19 01:51:54;;;;;;;;;2.00;2.00;;;;;19.49;61.38;101357.97;5051196;28;45430;-70
2021/08/19 01:54:22;;;;;;;;;1.00;1.00;;;;;19.43;61.59;101353.28;5036124;28;46043;-70
2021/08/19 01:56:47;;;;;;;;;1.00;1.00;;;;;19.41;61.60;101360.59;5038460;28;45420;-69
2021/08/19 01:59:12;;;;;;;;;3.33;2.00;;;;;19.41;61.73;101363.28;5039362;28;45574;-71
2021/08/19 02:01:38;;;;;;;;;3.00;2.00;;;;;19.40;61.27;101353.59;5053933;28;45430;-69
2021/08/19 02:04:04;;;;;;;;;2.33;1.67;;;;;19.43;61.39;101359.47;5058098;28;45509;-71
2021/08/19 02:06:30;;;;;;;;;2.67;2.67;;;;;19.36;60.94;101361.06;5058705;28;45626;-71
2021/08/19 02:08:55;;;;;;;;;2.00;2.00;;;;;19.27;61.66;101357.50;5053465;28;47290;-71
2021/08/19 02:11:20;;;;;;;;;5.00;4.00;;;;;19.29;61.78;101360.84;5035962;28;45480;-70
2021/08/19 02:13:47;;;;;;;;;3.00;3.00;;;;;19.33;61.16;101357.88;5036287;28;45342;-70
2021/08/19 02:16:13;;;;;;;;;1.67;1.67;;;;;19.27;61.08;101357.50;5040876;28;45433;-71
2021/08/19 02:18:38;;;;;;;;;3.00;1.67;;;;;19.20;61.65;101353.81;5044205;28;45726;-73
2021/08/19 02:21:04;;;;;;;;;2.00;2.00;;;;;19.20;61.62;101353.81;5033322;28;45389;-71
2021/08/19 02:23:29;;;;;;;;;3.00;2.00;;;;;19.23;61.18;101356.16;5035702;28;45282;-70
2021/08/19 02:25:55;;;;;;;;;2.33;2.00;;;;;19.17;61.50;101351.44;5048266;28;45526;-67
2021/08/19 02:28:20;;;;;;;;;1.00;1.00;;;;;19.22;61.70;101357.13;5032292;28;46981;-72
2021/08/19 02:30:46;;;;;;;;;3.00;2.00;;;;;19.34;62.25;101351.56;5041762;28;45710;-70
2021/08/19 02:33:11;;;;;;;;;2.00;1.33;;;;;19.39;61.43;101354.59;5055269;28;45452;-72
2021/08/19 02:35:37;;;;;;;;;1.33;1.33;;;;;19.43;61.51;101350.59;5049951;28;45511;-70
2021/08/19 02:38:06;;;;;;;;;2.67;2.00;;;;;19.41;60.96;101352.63;5032763;28;46370;-71
2021/08/19 02:40:32;;;;;;;;;1.67;1.67;;;;;19.47;61.53;101349.28;5055838;28;45591;-71
2021/08/19 02:42:57;;;;;;;;;1.33;1.33;;;;;19.49;61.24;101342.00;5035909;28;45412;-71
2021/08/19 02:45:23;;;;;;;;;2.00;2.00;;;;;19.48;60.95;101336.84;5055687;28;45453;-70
2021/08/19 02:47:49;;;;;;;;;1.33;1.00;;;;;19.42;60.86;101340.94;5056595;28;46940;-72
2021/08/19 02:50:14;;;;;;;;;2.00;2.00;;;;;19.34;61.08;101335.56;5049670;28;45452;-68
2021/08/19 02:52:40;;;;;;;;;2.33;2.00;;;;;19.29;61.14;101339.53;5044042;28;45188;-67
2021/08/19 02:55:07;;;;;;;;;3.00;2.00;;;;;19.27;61.53;101336.19;5043163;28;45588;-67
2021/08/19 02:57:32;;;;;;;;;2.00;2.00;;;;;19.32;61.54;101329.56;5054660;28;46272;-69
2021/08/19 02:59:58;;;;;;;;;1.67;1.67;;;;;19.36;60.99;101325.63;5058437;28;45489;-69
2021/08/19 03:02:24;;;;;;;;;1.00;1.00;;;;;19.31;60.86;101330.56;5043692;28;45569;-70
2021/08/19 03:04:50;;;;;;;;;3.00;1.00;;;;;19.27;60.88;101336.19;5029713;28;45414;-69
2021/08/19 03:07:15;;;;;;;;;1.67;1.67;;;;;19.21;61.19;101331.47;5047512;28;45416;-69
2021/08/19 03:09:41;;;;;;;;;3.00;1.67;;;;;19.16;60.93;101328.44;5040802;28;45515;-69
2021/08/19 03:12:07;;;;;;;;;2.00;2.00;;;;;19.11;61.17;101328.09;5038832;28;45452;-69
2021/08/19 03:14:33;;;;;;;;;2.33;2.00;;;;;19.10;61.53;101323.78;5042929;28;45713;-70
2021/08/19 03:16:59;;;;;;;;;1.33;1.33;;;;;19.13;61.48;101323.44;5035264;28;47401;-69
2021/08/19 03:19:25;;;;;;;;;2.00;1.00;;;;;19.12;61.50;101316.44;5050864;28;45464;-69
2021/08/19 03:21:50;;;;;;;;;2.00;2.00;;;;;19.12;61.10;101319.09;5051865;28;45488;-68
2021/08/19 03:24:16;;;;;;;;;2.00;2.00;;;;;19.09;61.25;101319.44;5039013;28;45428;-69
2021/08/19 03:26:41;;;;;;;;;2.00;2.00;;;;;19.02;60.97;101315.72;5053549;28;47314;-69
2021/08/19 03:29:08;;;;;;;;;2.00;2.00;;;;;19.06;61.23;101320.56;5049655;28;45443;-68
2021/08/19 03:31:33;;;;;;;;;3.67;2.67;;;;;19.09;61.00;101322.09;5045052;28;45555;-69
2021/08/19 03:33:59;;;;;;;;;2.00;2.00;;;;;19.06;60.80;101320.56;5039007;28;45523;-69
2021/08/19 03:36:25;;;;;;;;;2.00;1.00;;;;;19.03;61.00;101322.72;5052630;28;45983;-69
2021/08/19 03:38:51;;;;;;;;;2.00;2.00;;;;;19.00;60.46;101320.38;5047846;28;45826;-70
2021/08/19 03:41:17;;;;;;;;;3.00;2.00;;;;;18.95;60.97;101321.66;5058233;28;45364;-71
2021/08/19 03:43:45;;;;;;;;;1.00;1.00;;;;;18.91;61.83;101319.47;5053294;28;45613;-71
2021/08/19 03:46:10;;;;;;;;;1.00;1.00;;;;;18.92;61.31;101313.97;5058589;28;46268;-70
2021/08/19 03:48:35;;;;;;;;;1.00;1.00;;;;;18.91;61.37;101314.13;5057985;28;45390;-69
2021/08/19 03:51:01;;;;;;;;;2.00;2.00;;;;;19.00;61.66;101315.03;5056363;28;45332;-69
2021/08/19 03:53:26;;;;;;;;;2.00;2.00;;;;;19.01;61.19;101309.56;5057269;28;45566;-70
2021/08/19 03:55:52;;;;;;;;;3.00;3.00;;;;;19.00;60.97;101309.72;5055373;28;45523;-69
2021/08/19 03:58:17;;;;;;;;;1.00;1.00;;;;;18.98;61.48;101312.53;5057237;28;45713;-68
2021/08/19 04:00:44;;;;;;;;;1.00;1.00;;;;;18.95;61.25;101305.69;5057389;28;47561;-69
2021/08/19 04:03:09;;;;;;;;;2.00;2.00;;;;;18.92;61.59;101308.66;5056173;28;45400;-69
2021/08/19 04:05:35;;;;;;;;;4.00;2.33;;;;;18.92;61.39;101308.66;5055519;27;46161;-69
2021/08/19 04:08:00;;;;;;;;;2.67;1.33;;;;;18.90;61.08;101313.31;5055556;28;45781;-70
2021/08/19 04:10:25;;;;;;;;;2.00;2.00;;;;;18.83;61.46;101308.72;5056059;28;45511;-68
2021/08/19 04:12:51;;;;;;;;;3.00;1.67;;;;;18.78;61.81;101309.19;5056531;28;45478;-69
2021/08/19 04:15:16;;;;;;;;;2.00;2.00;;;;;18.87;61.81;101310.91;5056637;28;46063;-71
2021/08/19 04:17:41;;;;;;;;;1.00;1.00;;;;;18.85;61.42;101304.94;5056186;28;45416;-68
2021/08/19 04:20:08;;;;;;;;;3.00;3.00;;;;;18.80;61.18;101305.38;5056649;28;45410;-68
2021/08/19 04:22:33;;;;;;;;;2.00;2.00;;;;;18.77;61.60;101307.50;5057451;28;45384;-69
2021/08/19 04:24:59;;;;;;;;;3.00;3.00;;;;;18.70;61.73;101309.94;5057991;28;45957;-68
2021/08/19 04:27:24;;;;;;;;;3.00;2.00;;;;;18.67;61.81;101309.41;5056574;28;45393;-69
2021/08/19 04:29:50;;;;;;;;;2.00;2.00;;;;;18.62;61.99;101316.03;5057718;28;45520;-69
2021/08/19 04:32:16;;;;;;;;;3.00;3.00;;;;;18.59;61.82;101311.03;5057826;28;45383;-68
2021/08/19 04:34:41;;;;;;;;;2.00;2.00;;;;;18.54;61.90;101302.66;5056658;28;46402;-69
2021/08/19 04:37:06;;;;;;;;;3.00;1.67;;;;;18.49;62.01;101307.59;5057519;28;45369;-68
2021/08/19 04:39:32;;;;;;;;;1.00;1.00;;;;;18.48;62.39;101301.44;5056916;28;45559;-67
2021/08/19 04:41:57;;;;;;;;;4.00;2.00;;;;;18.48;62.23;101297.94;5056456;28;45356;-68
2021/08/19 04:44:23;;;;;;;;;2.00;2.00;;;;;18.44;62.29;101299.25;5057726;28;45488;-68
2021/08/19 04:46:48;;;;;;;;;3.67;2.67;;;;;18.45;62.54;101308.91;5057394;28;45534;-68
2021/08/19 04:49:14;;;;;;;;;2.00;2.00;;;;;18.52;62.34;101303.81;5056967;28;45372;-69
2021/08/19 04:51:41;;;;;;;;;4.00;2.00;;;;;18.50;62.53;101305.75;5056022;27;45569;-67
2021/08/19 04:54:07;;;;;;;;;3.00;2.67;;;;;18.50;62.56;101311.94;5036301;28;46150;-68
2021/08/19 04:56:38;;;;;;;;;2.33;2.00;;;;;18.57;62.25;101312.16;5054865;28;45465;-68
2021/08/19 04:59:04;;;;;;;;;7.00;4.00;;;;;18.63;62.19;101316.88;5056261;28;45709;-69
2021/08/19 05:01:30;;;;;;;;;2.00;2.00;;;;;18.58;62.13;101313.84;5055777;28;45449;-67
2021/08/19 05:03:58;;;;;;;;;4.00;2.67;;;;;18.53;62.13;101322.25;5054209;27;46964;-68
2021/08/19 05:06:24;;;;;;;;;3.00;3.00;;;;;18.50;62.25;101319.91;5056181;28;45420;-69
2021/08/19 05:08:49;;;;;;;;;3.00;2.00;;;;;18.46;62.45;101327.34;5055385;28;45489;-69
2021/08/19 05:11:15;;;;;;;;;2.00;2.00;;;;;18.45;62.78;101324.84;5055521;28;51590;-69
2021/08/19 05:13:40;;;;;;;;;5.00;3.00;;;;;18.45;62.63;101325.69;5055757;28;46073;-69
2021/08/19 05:16:05;;;;;;;;;2.00;2.00;;;;;18.49;62.78;101331.53;5055611;28;45665;-66
2021/08/19 05:18:31;;;;;;;;;3.00;3.00;;;;;18.64;62.69;101331.84;5056670;28;45394;-66
2021/08/19 05:20:56;;;;;;;;;3.33;3.33;;;;;18.64;62.97;101330.03;5055936;28;45522;-69
2021/08/19 05:23:21;;;;;;;;;3.00;3.00;;;;;18.67;62.79;101330.69;5055987;28;45490;-69
2021/08/19 05:25:47;;;;;;;;;5.33;3.00;;;;;18.68;62.91;101329.72;5055330;28;48369;-70
2021/08/19 05:28:12;;;;;;;;;3.00;3.00;;;;;18.70;63.27;101333.88;5055778;28;45537;-69
2021/08/19 05:30:37;;;;;;;;;4.33;3.00;;;;;18.75;63.15;101326.28;5055742;28;45373;-70
2021/08/19 05:33:03;;;;;;;;;6.67;2.33;;;;;18.79;62.88;101327.66;5054188;28;45800;-70
2021/08/19 05:35:28;;;;;;;;;4.67;4.00;;;;;18.82;62.63;101334.50;5055351;28;45297;-68
2021/08/19 05:37:53;;;;;;;;;6.00;3.00;;;;;18.83;62.69;101333.50;5055320;28;45320;-69
2021/08/19 05:40:19;;;;;;;;;4.67;3.67;;;;;18.85;62.40;101336.00;5055181;28;45481;-70
2021/08/19 05:42:44;;;;;;;;;4.00;4.00;;;;;18.88;62.45;101341.03;5054229;28;46266;-68
2021/08/19 05:45:10;;;;;;;;;4.00;4.00;;;;;18.87;62.38;101334.03;5054724;28;45590;-68
2021/08/19 05:47:35;;;;;;;;;5.00;3.33;;;;;18.91;62.31;101341.59;5054533;28;45511;-71
2021/08/19 05:50:00;;;;;;;;;2.67;2.33;;;;;18.88;61.97;101338.38;5054917;28;45821;-70
2021/08/19 05:52:26;;;;;;;;;3.00;3.00;;;;;18.88;61.87;101341.88;5055560;28;45750;-69
2021/08/19 05:54:51;;;;;;;;;6.00;4.00;;;;;18.87;62.20;101342.84;5053666;28;45440;-70
2021/08/19 05:57:17;;;;;;;;;4.00;4.00;;;;;18.87;62.15;101345.50;5058822;28;45524;-70
2021/08/19 05:59:42;;;;;;;;;5.33;5.00;;;;;18.87;62.30;101340.19;5054033;28;45494;-69
2021/08/19 06:02:08;;;;;;;;;6.00;4.00;;;;;18.83;62.30;101344.16;5054077;28;47153;-69
2021/08/19 06:04:35;;;;;;;;;4.00;4.00;;;;;18.85;62.05;101338.66;5065133;28;45529;-70
2021/08/19 06:07:00;;;;;;;;;3.00;3.00;;;;;18.86;62.40;101338.50;5048363;28;45740;-70
2021/08/19 06:09:26;;;;;;;;;4.67;4.67;;;;;18.87;62.12;101334.03;5058103;28;45556;-70
2021/08/19 06:11:51;;;;;;;;;7.00;4.00;;;;;18.90;61.84;101334.59;5056764;28;46272;-70
2021/08/19 06:14:16;;;;;;;;;6.00;5.00;;;;;18.87;61.86;101340.19;5057386;28;45529;-71
2021/08/19 06:16:42;;;;;;;;;5.00;5.00;;;;;18.80;62.26;101331.16;5058203;28;45423;-70
2021/08/19 06:19:07;;;;;;;;;4.00;4.00;;;;;18.87;62.37;101334.88;5058480;28;45268;-70
2021/08/19 06:21:33;;;;;;;;;6.00;4.67;;;;;18.85;62.22;101333.34;5058420;28;45353;-70
2021/08/19 06:23:58;;;;;;;;;4.67;4.67;;;;;18.85;61.87;101342.19;5057917;28;45517;-71
2021/08/19 06:26:23;;;;;;;;;3.67;3.67;;;;;18.82;62.23;101331.81;5060024;28;45526;-70
2021/08/19 06:28:49;;;;;;;;;6.33;4.00;;;;;18.83;62.13;101332.69;5057824;28;45501;-70
2021/08/19 06:31:14;;;;;;;;;6.00;5.00;;;;;18.82;62.17;101333.66;5057640;28;46243;-70
2021/08/19 06:33:39;;;;;;;;;5.00;4.00;;;;;18.83;62.50;101336.16;5058227;28;50702;-70
2021/08/19 06:36:07;;;;;;;;;5.67;5.00;;;;;18.84;62.13;101332.53;5056638;28;45472;-70
2021/08/19 06:38:32;;;;;;;;;4.67;4.33;;;;;18.89;62.26;101337.38;5057786;28;45495;-69
2021/08/19 06:40:58;;;;;;;;;5.00;5.00;;;;;18.92;61.78;101334.44;5057642;27;46035;-69
2021/08/19 06:43:24;;;;;;;;;6.00;5.00;;;;;18.93;61.63;101334.28;5053220;28;45401;-70
2021/08/19 06:45:49;;;;;;;;;3.33;3.33;;;;;18.94;61.63;101341.28;5058312;27;45377;-69
2021/08/19 06:48:15;;;;;;;;;4.67;4.67;;;;;18.98;61.49;101325.84;5057298;28;45412;-69
2021/08/19 06:50:40;;;;;;;;;5.67;5.00;;;;;19.01;61.22;101335.34;5056728;28;45408;-71
2021/08/19 06:53:05;;;;;;;;;4.33;4.33;;;;;19.03;61.27;101334.22;5057907;27;45295;-70
2021/08/19 06:55:31;;;;;;;;;5.00;5.00;;;;;19.04;61.17;101341.19;5058322;28;45337;-70
2021/08/19 06:57:56;;;;;;;;;6.67;6.00;;;;;19.02;61.01;101334.34;5057194;28;45519;-69
2021/08/19 07:00:22;;;;;;;;;5.33;3.67;;;;;19.03;60.99;101339.53;5057542;28;46003;-70
2021/08/19 07:02:48;;;;;;;;;5.00;5.00;;;;;18.93;60.91;101328.97;5056653;28;45518;-69
2021/08/19 07:05:13;;;;;;;;;4.33;4.33;;;;;18.98;60.71;101341.81;5046796;28;45528;-71
2021/08/19 07:07:39;;;;;;;;;5.00;4.67;;;;;18.97;60.77;101340.16;5058198;28;45603;-71
2021/08/19 07:10:07;;;;;;;;;5.67;3.00;;;;;18.96;60.97;101341.13;5072875;27;46232;-69
2021/08/19 07:12:32;;;;;;;;;4.33;4.00;;;;;19.02;61.00;101334.34;5056927;28;45818;-70
2021/08/19 07:14:58;;;;;;;;;4.00;4.00;;;;;19.07;61.00;101345.38;5056593;28;45424;-70
2021/08/19 07:17:23;;;;;;;;;5.00;4.00;;;;;19.10;60.79;101334.44;5057609;27;45451;-70
2021/08/19 07:19:49;;;;;;;;;8.33;5.33;;;;;19.14;60.47;101351.75;5057550;28;46261;-69
2021/08/19 07:22:14;;;;;;;;;44.33;34.00;;;;;19.12;60.68;101337.75;5057362;28;45532;-68
2021/08/19 07:24:39;;;;;;;;;19.33;17.33;;;;;19.15;60.69;101336.59;5057455;28;45499;-70
2021/08/19 07:27:05;;;;;;;;;62.25;44.25;;;;;19.19;60.96;101341.47;5056476;28;45523;-69
2021/08/19 07:29:31;;;;;;;;;2.67;2.67;;;;;19.25;60.86;101337.34;5057059;27;45486;-70
2021/08/19 07:31:56;;;;;;;;;17.33;14.67;;;;;19.28;60.88;101332.53;5056880;28;45396;-69
2021/08/19 07:34:21;;;;;;;;;6.00;4.00;;;;;19.40;60.39;101335.78;5057100;28;45623;-70
2021/08/19 07:36:47;;;;;;;;;13.00;11.33;;;;;19.49;60.46;101331.34;5058594;28;45323;-68
2021/08/19 07:39:12;;;;;;;;;8.00;5.00;;;;;19.59;60.03;101334.72;5057319;28;47551;-70
2021/08/19 07:41:37;;;;;;;;;23.00;19.67;;;;;19.65;59.83;101337.75;5055746;28;45684;-70
2021/08/19 07:44:03;;;;;;;;;10.67;7.33;;;;;19.67;60.00;101328.59;5057058;28;45578;-69
2021/08/19 07:46:29;;;;;;;;;3.00;3.00;;;;;19.75;59.66;101327.81;5056994;28;45424;-70
2021/08/19 07:48:56;;;;;;;;;7.00;4.67;;;;;19.79;59.53;101329.16;5056918;28;46648;-70
2021/08/19 07:51:23;;;;;;;;;7.00;5.00;;;;;19.81;59.19;101331.66;5057163;28;45431;-69
2021/08/19 07:53:49;;;;;;;;;7.33;6.00;;;;;19.83;59.05;101330.53;5056906;28;45344;-70
2021/08/19 07:56:14;;;;;;;;;5.67;4.67;;;;;19.86;59.10;101327.56;5056446;28;45348;-69
2021/08/19 07:58:40;;;;;;;;;8.00;6.33;;;;;19.88;59.37;101325.56;5056864;28;46999;-69
2021/08/19 08:01:05;;;;;;;;;7.33;6.67;;;;;19.91;59.05;101333.22;5057716;28;45465;-69
2021/08/19 08:03:30;;;;;;;;;6.33;5.00;;;;;19.93;58.85;101330.41;5057311;28;45503;-69
2021/08/19 08:05:56;;;;;;;;;8.00;5.33;;;;;19.97;59.04;101338.91;5056267;28;45226;-70
2021/08/19 08:08:22;;;;;;;;;4.33;3.00;;;;;19.98;58.43;101337.91;5056638;28;45540;-70
2021/08/19 08:10:47;;;;;;;;;6.00;4.00;;;;;19.98;58.44;101338.78;5056528;28;45769;-69
2021/08/19 08:13:13;;;;;;;;;6.67;6.33;;;;;19.97;58.75;101346.91;5057152;28;45314;-70
2021/08/19 08:15:40;;;;;;;;;7.00;6.00;;;;;19.97;58.09;101341.56;5056855;28;45558;-71
2021/08/19 08:18:13;;;;;;;;;6.33;6.00;;;;;19.94;58.85;101338.25;5055798;28;47321;-70
2021/08/19 08:20:38;;;;;;;;;7.67;6.33;;;;;19.93;59.06;101341.91;5053153;28;45429;-70
2021/08/19 08:23:03;;;;;;;;;6.00;6.00;;;;;19.92;58.99;101334.91;5056280;28;45526;-72
2021/08/19 08:25:29;;;;;;;;;4.33;4.33;;;;;19.93;59.15;101346.41;5055706;28;45558;-71
2021/08/19 08:28:13;;;;;;;;;8.67;6.00;;;;;19.96;58.84;101343.41;5056440;28;45491;-68
2021/08/19 08:30:41;;;;;;;;;5.33;5.33;;;;;19.98;58.57;101349.44;5041905;28;45402;-68
2021/08/19 08:33:07;;;;;;;;;8.00;6.33;;;;;20.00;58.14;101346.59;5035392;28;45431;-71
2021/08/19 08:35:37;;;;;;;;;6.67;6.67;;;;;19.99;58.11;101342.25;5056211;28;45431;-70
2021/08/19 08:38:06;;;;;;;;;8.00;5.67;;;;;20.03;58.17;101340.94;5055654;28;46933;-69
2021/08/19 08:40:37;;;;;;;;;8.00;6.00;;;;;20.07;58.20;101352.94;5056277;28;45595;-70
2021/08/19 08:43:04;;;;;;;;;6.00;5.67;;;;;20.09;57.47;101345.63;5057475;28;45365;-70
2021/08/19 08:45:34;;;;;;;;;8.00;8.00;;;;;20.11;57.58;101343.66;5037917;28;45345;-70
2021/08/19 08:48:01;;;;;;;;;12.67;7.67;;;;;20.09;57.96;101350.97;5055376;28;46269;-70
2021/08/19 08:50:28;;;;;;;;;5.00;5.00;;;;;20.13;57.91;101356.81;5055778;28;45453;-71
2021/08/19 08:52:54;;;;;;;;;5.67;5.67;;;;;20.15;58.24;101353.00;5055938;28;45546;-68
2021/08/19 08:55:19;;;;;;;;;7.00;6.67;;;;;20.15;58.06;101358.31;5055859;28;45403;-70
2021/08/19 08:57:46;;;;;;;;;7.67;6.67;;;;;20.16;57.19;101346.66;5057042;28;46242;-71
2021/08/19 09:00:12;;;;;;;;;7.33;6.67;;;;;20.23;57.34;101358.34;5055854;28;45454;-69
2021/08/19 09:02:38;;;;;;;;;6.00;6.00;;;;;20.26;57.62;101347.38;5036921;28;45454;-69
2021/08/19 09:05:16;;;;;;;;;8.00;7.00;;;;;20.32;57.09;101363.69;5055936;28;45457;-70
2021/08/19 09:07:43;;;;;;;;;6.00;6.00;;;;;20.27;56.95;101362.34;5055676;28;46642;-69
2021/08/19 09:10:10;;;;;;;;;5.00;5.00;;;;;20.21;57.00;101365.69;5055628;28;45491;-69
2021/08/19 09:12:42;;;;;;;;;6.67;5.00;;;;;20.16;56.83;101369.81;5055734;28;45444;-70
2021/08/19 09:15:13;;;;;;;;;6.00;4.67;;;;;20.09;56.88;101364.28;5054535;28;45450;-69
2021/08/19 09:17:39;;;;;;;;;5.33;4.00;;;;;20.03;57.00;101367.59;5055943;28;47909;-69
2021/08/19 09:20:06;;;;;;;;;7.33;5.67;;;;;20.00;57.31;101358.09;5058692;28;45386;-70
2021/08/19 09:22:55;;;;;;;;;5.33;5.00;;;;;19.98;57.31;101375.25;5059301;27;45523;-70
2021/08/19 09:25:33;;;;;;;;;6.33;5.00;;;;;19.94;57.36;101375.56;5059893;28;45506;-69
2021/08/19 09:28:20;;;;;;;;;5.00;5.00;;;;;19.94;57.05;101374.72;5057932;28;46270;-69
2021/08/19 09:30:54;;;;;;;;;3.33;3.33;;;;;19.94;57.75;101364.91;5062079;28;45566;-71
2021/08/19 09:33:26;;;;;;;;;7.33;5.00;;;;;19.95;57.19;101360.41;5056137;28;45274;-70
2021/08/19 09:35:55;;;;;;;;;9.00;5.00;;;;;19.97;57.53;101357.56;5055189;28;45313;-69
2021/08/19 09:38:23;;;;;;;;;4.67;4.67;;;;;20.03;56.26;101368.44;5057489;28;46060;-69
2021/08/19 09:41:03;;;;;;;;;6.00;4.33;;;;;20.03;56.41;101362.25;5059045;28;45499;-70
2021/08/19 09:43:46;;;;;;;;;5.33;5.33;;;;;20.01;56.28;101364.28;5063430;28;45407;-69
2021/08/19 09:46:14;;;;;;;;;6.33;5.00;;;;;19.98;56.81;101360.09;5069409;28;45455;-70
2021/08/19 09:48:41;;;;;;;;;6.33;5.33;;;;;19.92;56.56;101358.88;5059400;28;45333;-70
2021/08/19 09:51:13;;;;;;;;;3.67;3.67;;;;;19.93;57.05;101368.56;5058592;28;45660;-70
2021/08/19 09:53:53;;;;;;;;;8.67;6.33;;;;;19.91;57.02;101367.06;5055877;28;45344;-69
2021/08/19 09:56:34;;;;;;;;;9.67;7.67;;;;;19.86;56.52;101361.38;5059162;28;45610;-69
2021/08/19 09:59:26;;;;;;;;;4.33;3.67;;;;;19.82;56.93;101360.03;5058935;28;46303;-70
2021/08/19 10:01:53;;;;;;;;;4.67;4.67;;;;;19.78;56.89;101359.47;5059122;28;45868;-71
2021/08/19 10:04:20;;;;;;;;;2.00;2.00;;;;;19.77;57.34;101355.13;5059154;28;45311;-70
2021/08/19 10:06:47;;;;;;;;;6.33;6.33;;;;;19.79;57.30;101353.16;5060486;28;45485;-70
2021/08/19 10:09:13;;;;;;;;;3.33;3.33;;;;;19.79;57.21;101350.47;5039534;28;48462;-70
2021/08/19 10:11:42;;;;;;;;;5.00;5.00;;;;;19.79;56.90;101355.81;5056062;28;45450;-70
2021/08/19 10:14:12;;;;;;;;;5.00;4.00;;;;;19.79;56.73;101358.47;5059132;28;45435;-70
2021/08/19 10:16:38;;;;;;;;;5.00;4.00;;;;;19.78;56.94;101355.00;5058715;28;45404;-70
2021/08/19 10:19:29;;;;;;;;;5.00;5.00;;;;;19.76;57.17;101356.13;5057975;28;47253;-71
2021/08/19 10:22:02;;;;;;;;;4.00;4.00;;;;;19.72;57.16;101357.44;5057598;28;45497;-70
2021/08/19 10:24:34;;;;;;;;;4.67;3.00;;;;;19.71;57.24;101356.59;5052675;28;45436;-71
2021/08/19 10:27:29;;;;;;;;;3.67;3.00;;;;;19.72;57.10;101360.09;5054227;28;45401;-70
2021/08/19 10:30:06;;;;;;;;;2.00;2.00;;;;;19.74;57.73;101358.13;5052186;28;47209;-70
2021/08/19 10:32:35;;;;;;;;;4.67;3.00;;;;;19.75;57.36;101354.47;5058382;28;45321;-71
2021/08/19 10:35:02;;;;;;;;;4.00;4.00;;;;;19.79;57.26;101355.81;5057946;27;45516;-70
2021/08/19 10:37:49;;;;;;;;;3.00;2.00;;;;;19.86;57.56;101348.03;5057827;28;45551;-71
2021/08/19 10:40:21;;;;;;;;;4.00;4.00;;;;;19.94;57.28;101354.25;5057845;28;47059;-70
2021/08/19 10:42:53;;;;;;;;;6.33;5.00;;;;;20.00;56.75;101352.75;5058203;28;45545;-69
2021/08/19 10:45:27;;;;;;;;;4.67;4.00;;;;;20.03;57.20;101347.13;5057664;27;45301;-70
2021/08/19 10:47:54;;;;;;;;;3.00;3.00;;;;;20.05;56.77;101350.44;5056260;28;45443;-70
2021/08/19 10:50:27;;;;;;;;;3.00;3.00;;;;;20.06;56.63;101354.78;5057097;28;46733;-70
2021/08/19 10:52:53;;;;;;;;;4.33;3.33;;;;;20.08;56.38;101359.94;5057178;28;45602;-69
2021/08/19 10:55:19;;;;;;;;;5.00;4.67;;;;;20.13;56.32;101352.31;5057027;28;45528;-71
2021/08/19 10:57:50;;;;;;;;;5.33;4.00;;;;;20.15;56.86;101352.13;5057451;28;45579;-70
2021/08/19 11:00:16;;;;;;;;;5.00;5.00;;;;;20.21;56.47;101347.00;5056837;28;47216;-70
2021/08/19 11:02:48;;;;;;;;;4.33;4.00;;;;;20.31;56.25;101357.53;5056368;28;45573;-69
2021/08/19 11:05:25;;;;;;;;;4.67;2.67;;;;;20.34;55.53;101353.69;5056727;28;45314;-71
2021/08/19 11:07:53;;;;;;;;;3.67;3.67;;;;;20.32;56.08;101353.00;5035376;28;45581;-70
2021/08/19 11:10:23;;;;;;;;;5.00;3.67;;;;;20.28;56.25;101350.69;5049164;28;47024;-70
2021/08/19 11:12:49;;;;;;;;;4.00;4.00;;;;;20.25;55.87;101351.03;5056535;28;49538;-70
2021/08/19 11:15:15;;;;;;;;;6.67;4.00;;;;;20.27;56.35;101354.34;5056787;27;45503;-69
2021/08/19 11:17:53;;;;;;;;;4.00;2.00;;;;;20.23;56.39;101355.66;5055954;28;45381;-71
2021/08/19 11:20:24;;;;;;;;;3.67;3.33;;;;;20.18;56.06;101360.66;5055687;28;46278;-69
2021/08/19 11:23:11;;;;;;;;;3.33;3.33;;;;;20.12;56.22;101350.63;5034659;28;45419;-71
2021/08/19 11:25:46;;;;;;;;;4.00;3.00;;;;;20.13;56.50;101356.81;5050394;28;45392;-70